Palpala, Argentina
Current Conditions -  °F | °C
As of 3:00 PM on Friday 24 Oct 2014 (Local Time) from SASJ Reporting Station
Scattered Clouds Scattered Clouds  
Wind Chill: 88°   Ceiling: Unl
Heat Index: 88°   Visibility: 6mi
Dew Point: 57°   Wind: 6mph
Humidity: 35%   Direction: 50°NE
Pressure: 29.97"   Gusts: NA
Location:  24.25°S, 65.2°W
Report Text: SASJ 241800Z 05005KT 9999 SCT030TCU FEW040CB31/14 Q1015
Loading
Personal Weather Stations






























Interactive Weather Map
Tropical Storm Tracking
New forecast layout! Learn more

10-Day Weather Forecast

Advertisements
Track Severe Weather on mobile